< < Back
Terminal Aerodrome Forecast


Current Version              Previous Versions:   1  2  3  4  5  6  7  8  9  

Terminal Aerodrome Forecast

657
FTUS44 KMRX 251205 AAA
TAFTYS
TAF AMD
KTYS 251205Z 2512/2612 VRB04KT P6SM BKN020
     FM251400 33005KT P6SM SCT040 BKN250
     FM260000 00000KT P6SM SCT250=

Latest METAR

808
SAUS80 KWBC 251600 RRA
MTRTYS
METAR KTYS 251553Z VRB03KT 10SM SCT019 SCT250 24/18 A3007 RMK AO2 SLP173
T02390178


USA.gov is the U.S. government's official web portal to all federal, state and local government web resources and services.